createdAt,value
2023-12-12T00:00:58.895Z,52.90
2023-12-12T00:01:58.852Z,50.98
2023-12-12T00:02:58.805Z,51.28
2023-12-12T00:03:58.754Z,51.63
2023-12-12T00:04:58.615Z,50.48
2023-12-12T00:05:58.675Z,51.83
2023-12-12T00:06:58.605Z,52.23
2023-12-12T00:07:58.434Z,52.16
2023-12-12T00:08:58.368Z,51.33
2023-12-12T00:09:58.327Z,52.50
2023-12-12T00:10:58.276Z,52.77
2023-12-12T00:11:58.196Z,52.81
2023-12-12T00:12:58.130Z,52.27
2023-12-12T00:13:58.067Z,52.35
2023-12-12T00:14:58.009Z,51.99
2023-12-12T00:15:58.014Z,53.24
2023-12-12T00:16:57.885Z,52.25
2023-12-12T00:17:57.863Z,51.99
2023-12-12T00:18:57.863Z,50.62
2023-12-12T00:19:57.705Z,51.62
2023-12-12T00:20:57.633Z,50.00
2023-12-12T00:21:57.589Z,53.33
2023-12-12T00:22:57.526Z,52.20
2023-12-12T00:23:57.440Z,50.00
2023-12-12T00:24:57.390Z,52.81
2023-12-12T00:25:57.318Z,52.93
2023-12-12T00:26:57.286Z,52.65
2023-12-12T00:27:57.302Z,51.07
2023-12-12T00:28:57.156Z,51.80
2023-12-12T00:29:57.064Z,52.76
2023-12-12T00:30:57.055Z,51.45
2023-12-12T00:31:56.936Z,51.98
2023-12-12T00:32:56.904Z,52.88
2023-12-12T00:33:56.923Z,52.80
2023-12-12T00:34:56.817Z,51.42
2023-12-12T00:35:56.727Z,52.31
2023-12-12T00:36:56.755Z,51.20
2023-12-12T00:37:56.631Z,50.76
2023-12-12T00:38:56.547Z,51.40
2023-12-12T00:39:56.505Z,52.05
2023-12-12T00:40:56.419Z,50.69
2023-12-12T00:41:56.354Z,52.57
2023-12-12T00:42:56.370Z,51.16
2023-12-12T00:43:56.238Z,50.79
2023-12-12T00:44:56.185Z,51.47
2023-12-12T00:45:56.133Z,52.01
2023-12-12T00:46:56.093Z,50.76
2023-12-12T00:47:56.086Z,52.21
2023-12-12T00:48:56.118Z,51.05
2023-12-12T00:49:55.972Z,52.41
2023-12-12T00:50:55.864Z,51.48
2023-12-12T00:52:05.834Z,51.36
2023-12-12T00:52:55.753Z,51.61
2023-12-12T00:53:55.699Z,51.86
2023-12-12T00:54:55.647Z,51.93
2023-12-12T00:55:55.566Z,51.71
2023-12-12T00:56:55.576Z,51.22
2023-12-12T00:57:55.490Z,51.06
2023-12-12T00:58:55.399Z,51.90
2023-12-12T00:59:55.357Z,51.92
2023-12-12T01:00:55.390Z,52.37
2023-12-12T01:01:55.266Z,51.73
2023-12-12T01:02:55.178Z,51.56
2023-12-12T01:03:55.191Z,50.66
2023-12-12T01:04:55.153Z,51.05
2023-12-12T01:05:55.085Z,50.73
2023-12-12T01:06:54.937Z,52.00
2023-12-12T01:07:54.909Z,52.78
2023-12-12T01:08:54.829Z,51.26
2023-12-12T01:09:54.782Z,51.77
2023-12-12T01:10:54.712Z,51.89
2023-12-12T01:11:54.675Z,52.59
2023-12-12T01:12:54.655Z,49.87
2023-12-12T01:13:54.536Z,53.05
2023-12-12T01:14:54.458Z,51.24
2023-12-12T01:15:54.426Z,51.75
2023-12-12T01:16:54.354Z,52.69
2023-12-12T01:17:54.435Z,50.80
2023-12-12T01:18:54.307Z,51.63
2023-12-12T01:19:54.242Z,52.30
2023-12-12T01:20:54.122Z,51.35
2023-12-12T01:21:54.128Z,53.07
2023-12-12T01:22:54.032Z,53.29
2023-12-12T01:23:53.994Z,51.82
2023-12-12T01:24:53.955Z,52.90
2023-12-12T01:25:53.857Z,51.62
2023-12-12T01:26:53.797Z,52.55
2023-12-12T01:27:53.785Z,52.85
2023-12-12T01:28:53.667Z,51.98
2023-12-12T01:29:53.609Z,51.21
2023-12-12T01:30:53.590Z,51.21
2023-12-12T01:31:53.521Z,51.60
2023-12-12T01:32:53.492Z,50.63
2023-12-12T01:33:53.426Z,51.71
2023-12-12T01:34:53.405Z,50.70
2023-12-12T01:35:53.287Z,51.79
2023-12-12T01:36:53.263Z,51.37
2023-12-12T01:37:53.178Z,51.04
2023-12-12T01:38:53.083Z,53.54
2023-12-12T01:39:53.064Z,51.56
2023-12-12T01:40:52.984Z,51.19
2023-12-12T01:41:52.970Z,52.19
2023-12-12T01:42:52.909Z,52.51
2023-12-12T01:43:52.788Z,52.25
2023-12-12T01:44:52.714Z,51.90
2023-12-12T01:45:52.673Z,52.80
2023-12-12T01:46:52.580Z,53.33
2023-12-12T01:47:52.606Z,52.35
2023-12-12T01:48:52.585Z,52.54
2023-12-12T01:49:52.448Z,53.37
2023-12-12T01:50:52.332Z,52.92
2023-12-12T01:51:52.376Z,53.06
2023-12-12T01:52:52.217Z,51.97
2023-12-12T01:53:52.173Z,51.74
2023-12-12T01:54:52.167Z,51.75
2023-12-12T01:55:52.019Z,53.02
2023-12-12T01:56:51.986Z,52.00
2023-12-12T01:57:52.031Z,52.42
2023-12-12T01:58:51.878Z,52.12
2023-12-12T01:59:51.803Z,52.52
2023-12-12T02:00:51.791Z,50.71
2023-12-12T02:01:51.762Z,50.68
2023-12-12T02:02:51.609Z,51.42
2023-12-12T02:03:51.636Z,51.93
2023-12-12T02:04:51.639Z,51.97
2023-12-12T02:05:51.587Z,51.64
2023-12-12T02:06:51.438Z,51.10
2023-12-12T02:07:51.326Z,51.69
2023-12-12T02:08:51.257Z,52.16
2023-12-12T02:09:51.205Z,53.86
2023-12-12T02:10:51.144Z,52.30
2023-12-12T02:11:51.054Z,53.47
2023-12-12T02:12:51.019Z,53.04
2023-12-12T02:13:50.975Z,52.00
2023-12-12T02:14:50.921Z,51.09
2023-12-12T02:15:50.868Z,51.23
2023-12-12T02:16:50.777Z,51.82
2023-12-12T02:17:50.800Z,51.78
2023-12-12T02:18:50.758Z,50.69
2023-12-12T02:19:50.678Z,52.41
2023-12-12T02:20:50.560Z,51.35
2023-12-12T02:21:50.548Z,51.18
2023-12-12T02:22:50.431Z,52.32
2023-12-12T02:23:50.386Z,52.72
2023-12-12T02:24:50.354Z,52.27
2023-12-12T02:25:50.302Z,52.42
2023-12-12T02:26:50.223Z,51.49
2023-12-12T02:27:50.107Z,51.97
2023-12-12T02:28:50.044Z,51.34
2023-12-12T02:29:49.972Z,52.30
2023-12-12T02:30:49.988Z,51.53
2023-12-12T02:31:49.862Z,52.49
2023-12-12T02:32:49.930Z,52.40
2023-12-12T02:33:49.794Z,51.68
2023-12-12T02:34:49.682Z,50.75
2023-12-12T02:35:49.629Z,52.40
2023-12-12T02:36:49.630Z,50.00
2023-12-12T02:37:49.488Z,51.61
2023-12-12T02:38:49.447Z,51.10
2023-12-12T02:39:49.359Z,50.25
2023-12-12T02:40:49.277Z,50.44
2023-12-12T02:41:49.239Z,51.77
2023-12-12T02:42:49.162Z,53.72
2023-12-12T02:43:49.116Z,51.61
2023-12-12T02:44:49.017Z,51.53
2023-12-12T02:45:48.972Z,52.18
2023-12-12T02:46:48.935Z,50.96
2023-12-12T02:47:48.990Z,51.45
2023-12-12T02:48:48.836Z,53.23
2023-12-12T02:49:48.847Z,51.37
2023-12-12T02:50:48.639Z,53.34
2023-12-12T02:51:48.591Z,52.12
2023-12-12T02:52:48.531Z,53.28
2023-12-12T02:53:48.483Z,52.14
2023-12-12T02:54:48.393Z,53.54
2023-12-12T02:55:48.337Z,52.29
2023-12-12T02:56:48.284Z,50.68
2023-12-12T02:57:48.192Z,53.17
2023-12-12T02:58:48.153Z,53.24
2023-12-12T02:59:48.046Z,50.85
2023-12-12T03:00:48.041Z,51.65
2023-12-12T03:01:47.988Z,52.20
2023-12-12T03:02:47.864Z,53.08
2023-12-12T03:03:47.829Z,50.89
2023-12-12T03:04:47.867Z,51.68
2023-12-12T03:05:47.764Z,50.57
2023-12-12T03:06:47.644Z,51.03
2023-12-12T03:07:47.584Z,52.30
2023-12-12T03:08:47.495Z,50.59
2023-12-12T03:09:47.443Z,50.69
2023-12-12T03:10:47.384Z,52.02
2023-12-12T03:11:47.396Z,52.98
2023-12-12T03:12:47.323Z,51.68
2023-12-12T03:13:47.256Z,52.70
2023-12-12T03:14:47.252Z,54.29
2023-12-12T03:15:47.233Z,53.12
2023-12-12T03:16:47.201Z,53.19
2023-12-12T03:17:47.296Z,53.29
2023-12-12T03:18:47.128Z,52.40
2023-12-12T03:19:47.052Z,52.32
2023-12-12T03:20:46.919Z,53.09
2023-12-12T03:21:46.896Z,50.93
2023-12-12T03:22:46.802Z,51.67
2023-12-12T03:23:46.758Z,50.84
2023-12-12T03:24:46.727Z,50.69
2023-12-12T03:25:46.665Z,52.50
2023-12-12T03:26:46.630Z,52.65
2023-12-12T03:27:46.577Z,51.43
2023-12-12T03:28:46.540Z,51.44
2023-12-12T03:29:46.516Z,53.39
2023-12-12T03:30:46.431Z,52.31
2023-12-12T03:31:46.420Z,50.93
2023-12-12T03:32:46.444Z,52.24
2023-12-12T03:33:46.345Z,51.90
2023-12-12T03:34:46.330Z,50.92
2023-12-12T03:35:46.221Z,51.61
2023-12-12T03:36:46.182Z,51.82
2023-12-12T03:37:46.161Z,53.94
2023-12-12T03:38:46.061Z,52.09
2023-12-12T03:39:46.012Z,52.36
2023-12-12T03:40:45.936Z,52.86
2023-12-12T03:41:45.957Z,51.73
2023-12-12T03:42:45.877Z,52.55
2023-12-12T03:43:45.894Z,52.70
2023-12-12T03:44:45.793Z,51.35
2023-12-12T03:45:45.774Z,50.86
2023-12-12T03:46:45.753Z,52.56
2023-12-12T03:47:45.659Z,50.93
2023-12-12T03:48:45.640Z,51.49
2023-12-12T03:49:45.688Z,52.84
2023-12-12T03:50:45.523Z,50.47
2023-12-12T03:51:45.458Z,51.82
2023-12-12T03:52:45.399Z,52.43
2023-12-12T03:53:45.339Z,53.19
2023-12-12T03:54:45.351Z,53.21
2023-12-12T03:55:45.247Z,50.81
2023-12-12T03:56:45.236Z,54.47
2023-12-12T03:57:45.195Z,54.55
2023-12-12T03:58:45.100Z,52.82
2023-12-12T03:59:45.139Z,53.22
2023-12-12T04:00:45.046Z,53.08
2023-12-12T04:01:45.156Z,51.96
2023-12-12T04:02:44.980Z,52.95
2023-12-12T04:03:44.887Z,54.09
2023-12-12T04:04:44.896Z,51.27
2023-12-12T04:05:44.860Z,51.13
2023-12-12T04:06:44.778Z,52.24
2023-12-12T04:07:44.769Z,51.89
2023-12-12T04:08:44.660Z,52.24
2023-12-12T04:09:44.592Z,52.07
2023-12-12T04:10:44.576Z,51.99
2023-12-12T04:11:44.504Z,52.93
2023-12-12T04:12:44.446Z,52.22
2023-12-12T04:13:44.428Z,52.39
2023-12-12T04:14:44.376Z,52.67
2023-12-12T04:15:44.290Z,53.35
2023-12-12T04:16:44.330Z,52.96
2023-12-12T04:17:44.402Z,51.36
2023-12-12T04:18:44.280Z,50.29
2023-12-12T04:19:44.203Z,52.37
2023-12-12T04:20:44.103Z,52.55
2023-12-12T04:21:44.054Z,52.15
2023-12-12T04:22:44.030Z,51.71
2023-12-12T04:23:44.298Z,52.33
2023-12-12T04:24:43.980Z,52.47
2023-12-12T04:25:44.037Z,52.28
2023-12-12T04:26:43.926Z,50.48
2023-12-12T04:27:43.816Z,52.84
2023-12-12T04:28:43.764Z,52.64
2023-12-12T04:29:43.737Z,51.52
2023-12-12T04:30:43.647Z,52.55
2023-12-12T04:31:43.665Z,51.96
2023-12-12T04:32:43.637Z,52.11
2023-12-12T04:33:43.595Z,53.47
2023-12-12T04:34:43.575Z,51.78
2023-12-12T04:35:43.464Z,52.44
2023-12-12T04:36:43.421Z,52.24
2023-12-12T04:37:43.379Z,51.86
2023-12-12T04:38:43.351Z,53.62
2023-12-12T04:39:43.286Z,52.14
2023-12-12T04:40:43.296Z,52.87
2023-12-12T04:41:43.201Z,52.77
2023-12-12T04:42:43.155Z,52.31
2023-12-12T04:43:43.131Z,51.24
2023-12-12T04:44:43.065Z,51.28
2023-12-12T04:45:43.007Z,52.46
2023-12-12T04:46:43.425Z,51.12
2023-12-12T04:47:42.964Z,51.14
2023-12-12T04:48:42.953Z,50.98
2023-12-12T04:49:42.931Z,52.97
2023-12-12T04:50:42.741Z,51.09
2023-12-12T04:51:42.735Z,51.57
2023-12-12T04:52:50.094Z,50.00
2023-12-12T04:53:50.095Z,50.00
2023-12-12T04:54:50.077Z,50.00
2023-12-12T04:55:50.085Z,50.00
2023-12-12T04:56:50.054Z,50.00
2023-12-12T04:57:50.028Z,50.00
2023-12-12T04:58:50.054Z,53.17
2023-12-12T04:59:50.030Z,52.02
2023-12-12T05:00:50.020Z,52.34
2023-12-12T05:01:50.055Z,51.32
2023-12-12T05:02:50.029Z,50.75
2023-12-12T05:03:50.023Z,52.42
2023-12-12T05:04:49.969Z,52.48
2023-12-12T05:05:50.124Z,52.58
2023-12-12T05:06:50.004Z,51.21
2023-12-12T05:07:50.010Z,50.14
2023-12-12T05:08:49.928Z,52.25
2023-12-12T05:09:49.922Z,51.72
2023-12-12T05:10:49.930Z,53.82
2023-12-12T05:11:49.879Z,52.62
2023-12-12T05:12:49.939Z,50.71
2023-12-12T05:13:49.991Z,52.08
2023-12-12T05:14:49.849Z,52.46
2023-12-12T05:15:49.902Z,52.57
2023-12-12T05:16:57.993Z,51.70
2023-12-12T05:17:50.953Z,51.79
2023-12-12T05:18:49.890Z,52.05
2023-12-12T05:19:49.893Z,51.87
2023-12-12T05:20:49.788Z,52.71
2023-12-12T05:21:49.779Z,51.70
2023-12-12T05:22:49.786Z,51.50
2023-12-12T05:23:49.765Z,51.26
2023-12-12T05:24:49.761Z,51.60
2023-12-12T05:25:49.766Z,52.11
2023-12-12T05:26:49.712Z,52.71
2023-12-12T05:27:49.725Z,51.96
2023-12-12T05:28:49.694Z,50.71
2023-12-12T05:29:49.736Z,50.40
2023-12-12T05:30:49.803Z,52.61
2023-12-12T05:31:49.838Z,51.99
2023-12-12T05:32:49.827Z,51.84
2023-12-12T05:33:49.967Z,52.51
2023-12-12T05:34:49.949Z,51.66
2023-12-12T05:35:49.875Z,53.46
2023-12-12T05:36:49.949Z,51.95
2023-12-12T05:37:50.003Z,51.45
2023-12-12T05:38:50.020Z,51.88
2023-12-12T05:39:50.033Z,50.00
2023-12-12T05:40:50.061Z,50.00
2023-12-12T05:41:50.092Z,53.15
2023-12-12T05:42:50.159Z,51.69
2023-12-12T05:43:50.129Z,51.92
2023-12-12T05:44:50.294Z,51.99
2023-12-12T05:45:50.243Z,51.30
2023-12-12T05:46:50.258Z,50.32
2023-12-12T05:47:50.332Z,51.07
2023-12-12T05:48:50.340Z,51.60
2023-12-12T05:49:50.404Z,51.27
2023-12-12T05:50:50.316Z,52.38
2023-12-12T05:51:50.349Z,53.42
2023-12-12T05:52:50.438Z,51.98
2023-12-12T05:53:50.437Z,54.27
2023-12-12T05:54:50.500Z,50.94
2023-12-12T05:55:50.430Z,51.52
2023-12-12T05:56:50.496Z,52.05
2023-12-12T05:57:50.489Z,53.19
2023-12-12T05:58:50.503Z,51.84
2023-12-12T05:59:50.529Z,52.85
2023-12-12T06:00:50.584Z,53.10
2023-12-12T06:01:50.615Z,52.09
2023-12-12T06:02:50.569Z,52.75
2023-12-12T06:03:50.706Z,51.67
2023-12-12T06:04:50.713Z,52.35
2023-12-12T06:05:50.646Z,53.54
2023-12-12T06:06:50.771Z,52.07
2023-12-12T06:07:50.700Z,50.76
2023-12-12T06:08:50.674Z,50.00
2023-12-12T06:09:50.720Z,52.39
2023-12-12T06:10:50.786Z,51.78
2023-12-12T06:11:50.757Z,52.94
2023-12-12T06:12:50.715Z,51.24
2023-12-12T06:13:50.761Z,50.99
2023-12-12T06:14:50.741Z,51.06
2023-12-12T06:15:50.749Z,50.57
2023-12-12T06:16:50.777Z,52.88
2023-12-12T06:17:50.832Z,51.56
2023-12-12T06:18:50.829Z,51.62
2023-12-12T06:19:50.946Z,51.89
2023-12-12T06:20:50.783Z,50.00
2023-12-12T06:21:50.821Z,51.73
2023-12-12T06:22:50.852Z,50.91
2023-12-12T06:23:50.833Z,51.45
2023-12-12T06:24:50.855Z,52.45
2023-12-12T06:25:50.904Z,52.34
2023-12-12T06:26:50.867Z,52.58
2023-12-12T06:27:50.878Z,53.05
2023-12-12T06:28:50.880Z,51.83
2023-12-12T06:29:50.900Z,51.15
2023-12-12T06:30:50.926Z,52.47
2023-12-12T06:31:51.003Z,52.59
2023-12-12T06:32:51.114Z,52.76
2023-12-12T06:33:51.022Z,51.25
2023-12-12T06:34:50.893Z,53.24
2023-12-12T06:35:54.403Z,53.86
2023-12-12T06:36:50.854Z,53.74
2023-12-12T06:37:50.941Z,51.77
2023-12-12T06:38:50.861Z,53.69
2023-12-12T06:39:50.859Z,51.38
2023-12-12T06:40:50.868Z,52.05
2023-12-12T06:41:51.836Z,51.57
2023-12-12T06:42:50.838Z,51.28
2023-12-12T06:43:50.793Z,50.75
2023-12-12T06:44:50.777Z,52.30
2023-12-12T06:45:50.803Z,51.86
2023-12-12T06:46:50.849Z,51.86
2023-12-12T06:47:50.875Z,50.00
2023-12-12T06:48:50.791Z,50.58
2023-12-12T06:49:50.812Z,52.04
2023-12-12T06:50:50.776Z,52.15
2023-12-12T06:51:50.825Z,51.51
2023-12-12T06:52:50.735Z,52.24
2023-12-12T06:53:53.311Z,50.91
2023-12-12T06:54:50.918Z,53.47
2023-12-12T06:55:50.887Z,52.02
2023-12-12T06:56:50.901Z,57.23
2023-12-12T06:57:50.956Z,52.26
2023-12-12T06:58:50.966Z,52.83
2023-12-12T06:59:50.977Z,53.18
2023-12-12T07:00:51.030Z,52.14
2023-12-12T07:01:51.011Z,51.17
2023-12-12T07:02:51.025Z,52.38
2023-12-12T07:03:51.011Z,53.43
2023-12-12T07:04:51.070Z,53.23
2023-12-12T07:05:51.099Z,54.33
2023-12-12T07:06:51.109Z,54.59
2023-12-12T07:07:51.041Z,55.18
2023-12-12T07:08:52.106Z,56.10
2023-12-12T07:09:59.272Z,57.56
2023-12-12T07:10:52.027Z,57.63
2023-12-12T07:11:51.017Z,57.99
2023-12-12T07:12:51.260Z,59.01
2023-12-12T07:13:51.020Z,60.22
2023-12-12T07:14:51.151Z,62.41
2023-12-12T07:15:50.978Z,64.06
2023-12-12T07:16:50.982Z,65.06
2023-12-12T07:17:50.978Z,66.52
2023-12-12T07:18:51.013Z,68.76
2023-12-12T07:19:51.084Z,69.08
2023-12-12T07:20:50.917Z,70.42
2023-12-12T07:21:50.911Z,72.42
2023-12-12T07:22:50.907Z,73.04
2023-12-12T07:23:50.904Z,75.53
2023-12-12T07:24:50.911Z,76.69
2023-12-12T07:25:50.936Z,75.87
2023-12-12T07:26:50.999Z,77.92
2023-12-12T07:27:51.088Z,79.90
2023-12-12T07:28:51.144Z,81.84
2023-12-12T07:29:51.077Z,83.99
2023-12-12T07:30:51.080Z,86.24
2023-12-12T07:31:51.184Z,88.49
2023-12-12T07:32:51.301Z,88.66
2023-12-12T07:33:51.322Z,90.62
2023-12-12T07:34:51.331Z,92.79
2023-12-12T07:35:51.405Z,94.46
2023-12-12T07:36:51.443Z,97.04
2023-12-12T07:37:51.651Z,97.62
2023-12-12T07:38:51.547Z,99.15
2023-12-12T07:39:51.603Z,100.43
2023-12-12T07:40:51.762Z,103.71
2023-12-12T07:41:52.041Z,104.61
2023-12-12T07:42:51.777Z,105.34
2023-12-12T07:43:51.836Z,106.82
2023-12-12T07:44:51.962Z,108.04
2023-12-12T07:45:52.104Z,109.46
2023-12-12T07:46:52.020Z,110.89
2023-12-12T07:47:52.533Z,112.50
2023-12-12T07:48:52.249Z,112.92
2023-12-12T07:49:52.243Z,113.51
2023-12-12T07:50:52.270Z,115.27
2023-12-12T07:51:52.340Z,117.19
2023-12-12T07:52:52.515Z,118.20
2023-12-12T07:53:52.391Z,117.54
2023-12-12T07:54:52.597Z,118.84
2023-12-12T07:55:52.533Z,120.05
2023-12-12T07:56:52.594Z,120.96
2023-12-12T07:57:52.683Z,121.17
2023-12-12T07:58:52.756Z,122.54
2023-12-12T07:59:54.298Z,123.78
2023-12-12T08:00:52.850Z,125.02
2023-12-12T08:01:53.023Z,124.85
2023-12-12T08:02:52.922Z,126.73
2023-12-12T08:03:53.030Z,127.92
2023-12-12T08:04:53.071Z,129.30
2023-12-12T08:05:53.142Z,129.49
2023-12-12T08:06:53.170Z,131.05
2023-12-12T08:07:53.234Z,130.60
2023-12-12T08:08:53.243Z,131.57
2023-12-12T08:09:53.355Z,132.11
2023-12-12T08:10:53.387Z,132.60
2023-12-12T08:11:53.453Z,133.01
2023-12-12T08:12:53.474Z,134.43
2023-12-12T08:13:53.762Z,134.20
2023-12-12T08:14:53.584Z,135.22
2023-12-12T08:15:53.640Z,135.26
2023-12-12T08:16:53.714Z,135.85
2023-12-12T08:17:53.955Z,136.21
2023-12-12T08:18:53.847Z,135.47
2023-12-12T08:19:53.973Z,137.20
2023-12-12T08:21:19.070Z,136.22
2023-12-12T08:21:53.953Z,136.57
2023-12-12T08:22:53.911Z,137.85
2023-12-12T08:23:54.113Z,139.20
2023-12-12T08:24:54.128Z,140.18
2023-12-12T08:25:53.841Z,144.15
2023-12-12T08:26:53.837Z,145.28
2023-12-12T08:27:53.844Z,145.38
2023-12-12T08:28:53.854Z,143.89
2023-12-12T08:29:53.811Z,144.32
2023-12-12T08:30:53.883Z,146.64
2023-12-12T08:31:53.856Z,144.27
2023-12-12T08:32:53.921Z,146.80
2023-12-12T08:33:53.780Z,148.10
2023-12-12T08:34:53.811Z,151.30
2023-12-12T08:35:53.748Z,155.80
2023-12-12T08:36:53.753Z,156.65
2023-12-12T08:37:53.698Z,155.75
2023-12-12T08:38:53.759Z,155.79
2023-12-12T08:39:53.679Z,156.90
2023-12-12T08:40:57.528Z,155.76
2023-12-12T08:41:53.691Z,158.66
2023-12-12T08:42:53.611Z,157.34
2023-12-12T08:43:53.560Z,156.87
2023-12-12T08:44:53.573Z,159.46
2023-12-12T08:45:53.534Z,160.86
2023-12-12T08:46:53.520Z,158.79
2023-12-12T08:47:53.546Z,159.55
2023-12-12T08:48:53.510Z,157.70
2023-12-12T08:49:53.581Z,159.83
2023-12-12T08:50:53.470Z,159.20
2023-12-12T08:51:53.472Z,159.70
2023-12-12T08:52:53.436Z,159.55
2023-12-12T08:53:53.436Z,159.70
2023-12-12T08:54:53.395Z,158.86
2023-12-12T08:55:53.400Z,158.80
2023-12-12T08:56:53.400Z,158.82
2023-12-12T08:57:53.412Z,158.46
2023-12-12T08:58:53.475Z,156.93
2023-12-12T08:59:53.436Z,157.27
2023-12-12T09:00:53.428Z,156.95
2023-12-12T09:01:53.413Z,156.95
2023-12-12T09:02:53.348Z,155.36
2023-12-12T09:03:53.304Z,155.55
2023-12-12T09:04:53.366Z,155.38
2023-12-12T09:05:53.426Z,154.52
2023-12-12T09:06:53.465Z,154.62
2023-12-12T09:07:53.537Z,153.67
2023-12-12T09:08:54.332Z,154.15
2023-12-12T09:09:53.582Z,152.99
2023-12-12T09:10:53.626Z,152.14
2023-12-12T09:11:53.641Z,150.67
2023-12-12T09:12:53.672Z,150.39
2023-12-12T09:13:53.699Z,150.14
2023-12-12T09:14:53.752Z,149.43
2023-12-12T09:15:53.751Z,148.97
2023-12-12T09:16:53.790Z,148.37
2023-12-12T09:18:05.912Z,147.46
2023-12-12T09:18:54.990Z,147.59
2023-12-12T09:19:54.085Z,147.71
2023-12-12T09:20:54.013Z,147.55
2023-12-12T09:21:53.920Z,145.99
2023-12-12T09:22:53.856Z,145.64
2023-12-12T09:23:53.783Z,146.05
2023-12-12T09:24:53.745Z,144.83
2023-12-12T09:25:53.761Z,144.50
2023-12-12T09:26:53.751Z,142.38
2023-12-12T09:27:53.687Z,143.08
2023-12-12T09:28:53.691Z,140.73
2023-12-12T09:29:55.916Z,141.30
2023-12-12T09:30:53.800Z,141.38
2023-12-12T09:31:53.670Z,141.75
2023-12-12T09:32:53.756Z,143.73
2023-12-12T09:33:53.731Z,146.54
2023-12-12T09:34:53.680Z,146.48
2023-12-12T09:35:53.671Z,148.14
2023-12-12T09:36:53.702Z,149.27
2023-12-12T09:37:53.724Z,152.00
2023-12-12T09:38:53.695Z,153.18
2023-12-12T09:39:53.692Z,153.61
2023-12-12T09:40:53.694Z,155.71
2023-12-12T09:41:53.666Z,156.99
2023-12-12T09:42:53.690Z,156.06
2023-12-12T09:43:53.686Z,156.24
2023-12-12T09:44:53.702Z,157.66
2023-12-12T09:45:53.704Z,156.49
2023-12-12T09:46:53.714Z,157.18
2023-12-12T09:47:53.736Z,157.31
2023-12-12T09:48:54.169Z,156.77
2023-12-12T09:49:53.721Z,157.25
2023-12-12T09:50:53.671Z,157.00
2023-12-12T09:51:53.730Z,156.33
2023-12-12T09:52:53.715Z,158.32
2023-12-12T09:53:53.699Z,157.40
2023-12-12T09:54:53.694Z,156.85
2023-12-12T09:55:53.731Z,156.25
2023-12-12T09:56:53.720Z,156.98
2023-12-12T09:57:53.739Z,156.99
2023-12-12T09:58:53.735Z,156.06
2023-12-12T09:59:53.723Z,154.71
2023-12-12T10:00:53.770Z,154.96
2023-12-12T10:01:53.784Z,154.54
2023-12-12T10:02:53.725Z,155.68
2023-12-12T10:03:53.717Z,155.20
2023-12-12T10:04:53.718Z,154.41
2023-12-12T10:05:53.801Z,154.70
2023-12-12T10:06:53.741Z,154.09
2023-12-12T10:08:00.325Z,154.53
2023-12-12T10:08:54.749Z,154.59
2023-12-12T10:09:53.755Z,154.62
2023-12-12T10:10:53.837Z,154.56
2023-12-12T10:11:53.740Z,153.71
2023-12-12T10:12:53.732Z,153.32
2023-12-12T10:13:53.743Z,152.57
2023-12-12T10:14:53.735Z,152.38
2023-12-12T10:15:53.720Z,152.87
2023-12-12T10:16:53.742Z,151.97
2023-12-12T10:17:53.793Z,152.86
2023-12-12T10:18:53.765Z,151.48
2023-12-12T10:19:53.883Z,151.75
2023-12-12T10:20:53.820Z,151.20
2023-12-12T10:21:53.706Z,151.56
2023-12-12T10:22:53.845Z,152.18
2023-12-12T10:23:53.809Z,151.31
2023-12-12T10:24:53.670Z,150.46
2023-12-12T10:25:53.701Z,150.68
2023-12-12T10:26:53.756Z,150.22
2023-12-12T10:27:53.676Z,149.80
2023-12-12T10:28:53.655Z,149.46
2023-12-12T10:29:53.704Z,149.60
2023-12-12T10:30:53.855Z,148.71
2023-12-12T10:31:53.672Z,148.82
2023-12-12T10:32:53.660Z,147.71
2023-12-12T10:33:53.683Z,149.02
2023-12-12T10:34:53.786Z,147.08
2023-12-12T10:35:53.678Z,147.05
2023-12-12T10:36:53.648Z,146.93
2023-12-12T10:37:53.744Z,146.96
2023-12-12T10:38:53.691Z,145.81
2023-12-12T10:39:53.628Z,145.61
2023-12-12T10:40:53.690Z,145.46
2023-12-12T10:42:15.646Z,144.94
2023-12-12T10:42:53.627Z,145.28
2023-12-12T10:43:54.544Z,146.19
2023-12-12T10:44:53.591Z,146.75
2023-12-12T10:45:53.561Z,147.74
2023-12-12T10:46:53.546Z,148.12
2023-12-12T10:47:53.580Z,146.92
2023-12-12T10:48:53.902Z,146.28
2023-12-12T10:49:53.576Z,145.16
2023-12-12T10:50:53.551Z,144.59
2023-12-12T10:51:53.520Z,142.71
2023-12-12T10:52:53.991Z,142.70
2023-12-12T10:53:53.482Z,142.71
2023-12-12T10:54:53.502Z,141.10
2023-12-12T10:55:53.478Z,144.37
2023-12-12T10:56:53.471Z,142.86
2023-12-12T10:57:53.484Z,143.35
2023-12-12T10:58:53.488Z,143.57
2023-12-12T11:00:00.055Z,145.23
2023-12-12T11:00:54.504Z,145.31
2023-12-12T11:01:53.482Z,145.63
2023-12-12T11:03:02.465Z,147.08
2023-12-12T11:03:53.440Z,145.55
2023-12-12T11:04:53.392Z,146.36
2023-12-12T11:05:53.402Z,147.54
2023-12-12T11:06:53.353Z,151.57
2023-12-12T11:07:53.355Z,153.30
2023-12-12T11:08:53.317Z,155.36
2023-12-12T11:09:53.341Z,154.34
2023-12-12T11:10:53.287Z,154.05
2023-12-12T11:11:53.270Z,155.45
2023-12-12T11:12:53.270Z,156.81
2023-12-12T11:13:53.240Z,157.41
2023-12-12T11:14:53.213Z,158.02
2023-12-12T11:15:53.217Z,159.17
2023-12-12T11:16:53.241Z,159.39
2023-12-12T11:17:53.237Z,160.30
2023-12-12T11:18:53.200Z,157.18
2023-12-12T11:19:53.245Z,158.16
2023-12-12T11:20:53.268Z,162.50
2023-12-12T11:21:53.149Z,163.50
2023-12-12T11:22:53.401Z,162.11
2023-12-12T11:23:53.099Z,164.27
2023-12-12T11:24:53.053Z,164.54
2023-12-12T11:25:53.137Z,164.84
2023-12-12T11:26:53.039Z,166.68
2023-12-12T11:27:53.074Z,164.71
2023-12-12T11:28:53.059Z,166.67
2023-12-12T11:29:53.033Z,166.09
2023-12-12T11:30:53.000Z,167.30
2023-12-12T11:31:53.108Z,169.73
2023-12-12T11:32:53.602Z,168.08
2023-12-12T11:33:53.119Z,168.97
2023-12-12T11:34:52.965Z,167.70
2023-12-12T11:35:53.091Z,170.99
2023-12-12T11:36:52.958Z,169.54
2023-12-12T11:37:52.889Z,171.04
2023-12-12T11:38:52.872Z,168.96
2023-12-12T11:39:52.868Z,170.95
2023-12-12T11:40:52.843Z,172.69
2023-12-12T11:41:52.867Z,172.42
2023-12-12T11:42:52.826Z,171.74
2023-12-12T11:43:52.792Z,174.04
2023-12-12T11:44:52.788Z,176.26
2023-12-12T11:45:52.787Z,175.16
2023-12-12T11:46:52.735Z,177.38
2023-12-12T11:47:52.802Z,176.82
2023-12-12T11:48:52.772Z,178.47
2023-12-12T11:49:52.706Z,181.43
2023-12-12T11:50:52.683Z,181.04
2023-12-12T11:51:52.662Z,180.39
2023-12-12T11:52:52.726Z,180.75
2023-12-12T11:53:52.651Z,182.36
2023-12-12T11:54:52.620Z,182.87
2023-12-12T11:55:52.581Z,184.46
2023-12-12T11:56:52.598Z,182.24
2023-12-12T11:57:52.658Z,186.44
2023-12-12T11:58:52.695Z,185.38
2023-12-12T11:59:52.700Z,185.50
2023-12-12T12:00:52.778Z,185.46
2023-12-12T12:01:52.769Z,188.79
2023-12-12T12:02:52.816Z,190.56
2023-12-12T12:03:52.838Z,191.23
2023-12-12T12:04:52.806Z,189.46
2023-12-12T12:05:52.910Z,191.84
2023-12-12T12:06:52.897Z,192.70
2023-12-12T12:07:52.930Z,192.94
2023-12-12T12:08:52.980Z,193.43
2023-12-12T12:09:52.996Z,195.41
2023-12-12T12:10:53.051Z,194.58
2023-12-12T12:11:53.087Z,196.54
2023-12-12T12:12:53.121Z,197.53
2023-12-12T12:13:53.218Z,199.38
2023-12-12T12:14:53.172Z,198.53
2023-12-12T12:15:53.217Z,198.44
2023-12-12T12:16:53.305Z,198.41
2023-12-12T12:17:53.509Z,199.02
2023-12-12T12:18:53.352Z,197.56
2023-12-12T12:19:53.381Z,197.04
2023-12-12T12:20:53.407Z,199.05
2023-12-12T12:21:53.432Z,199.22
2023-12-12T12:22:53.597Z,199.26
2023-12-12T12:23:53.497Z,198.73
2023-12-12T12:24:56.615Z,198.80
2023-12-12T12:25:53.572Z,198.82
2023-12-12T12:26:53.527Z,199.34
2023-12-12T12:27:53.492Z,200.05
2023-12-12T12:28:53.437Z,200.08
2023-12-12T12:29:53.544Z,202.39
2023-12-12T12:30:53.480Z,199.53
2023-12-12T12:31:53.577Z,199.80
2023-12-12T12:32:53.446Z,198.01
2023-12-12T12:33:53.380Z,196.85
2023-12-12T12:34:53.537Z,195.46
2023-12-12T12:35:53.320Z,194.81
2023-12-12T12:36:55.231Z,194.89
2023-12-12T12:37:53.261Z,193.46
2023-12-12T12:38:53.242Z,190.11
2023-12-12T12:39:53.219Z,189.48
2023-12-12T12:40:53.282Z,189.17
2023-12-12T12:41:53.273Z,187.96
2023-12-12T12:42:53.296Z,185.79